Overton, Nevada Weather observations

Data are for observation ending at time listed.
 Day   Time    Ave.   Ave.  Ave.  Vector   Max.   Stn.    Total    Solar   Ave.  
  of    of     Air    Rel.  Wind   Wind    Wind   Baro.  Precip.   Rad.    Soil  
Year   Day     Temp.  Hum.  Speed  Dir.    Gust   Pres.                    Temp. 
2026   (PST)    F      %     mph   deg.    mph     mb.     in.     W/m2     F   
------------------------------------------------------------------------------
 125   11:40   75.7    17    6.8   183     16.5   963.5    0.00    1005    98.8
 125   11:50   75.9    16    4.0   187     12.4   963.4    0.00     996    99.3
 125   12:00   76.7    17    3.2   161     11.9   963.4    0.00     914    99.4
 125   12:10   77.3    16    4.2   116     11.6   963.3    0.00     982    97.9
 125   12:20   77.2    16    5.7   146     11.4   963.3    0.00     977    98.0
 125   12:30   77.2    15    2.9   126      8.3   963.2    0.00     887    95.3
 125   12:40   78.2    15    5.7   153     10.9   963.1    0.00     948    94.1
 125   12:50   78.7    15    3.2   169      8.5   963.1    0.00     934    93.3
 125   13:00   78.2    15    6.0   184     14.5   963.1    0.00     918    92.3
 125   13:10   77.9    15    5.9   176     12.8   963.0    0.00     904    91.4
 125   13:20   77.6    15    4.1   205      9.2   962.9    0.00     889    90.3
 125   13:30   78.1    14    3.9   306     10.6   962.7    0.00     868    88.9
 125   13:40   78.3    14    4.7   103     11.4   962.6    0.00     847    87.9
 125   13:50   78.7    14    4.5   148     11.5   962.6    0.00     825    88.3
 125   14:00   78.8    14    4.4   154      9.6   962.5    0.00     800    88.4
 125   14:10   78.9    14    6.7   176     11.3   962.4    0.00     777    89.3
 125   14:20   78.0    14    5.0   118     11.5   962.4    0.00     750    87.7
 125   14:30   78.9    14    5.6   164     13.7   962.2    0.00     723    88.5
 125   14:40   79.3    14    5.2   137     11.5   962.1    0.00     698    87.9
 125   14:50   79.0    14    3.4   134      9.3   961.9    0.00     669    87.3
 125   15:00   78.8    14    3.9    90      9.1   961.8    0.00     490    86.5
 125   15:10   79.1    14    5.0   162      9.3   961.7    0.00      75    87.1
 125   15:20   79.0    14    4.2   166      8.7   961.6    0.00     323    86.8
 125   15:30   79.3    14    5.0   175     11.0   961.6    0.00     531    87.1
 125   15:40   79.3    14    3.7   208      7.3   961.5    0.00     353    86.5
 125   15:50   79.7    14    3.1   208      8.6   961.5    0.00     473    86.2
 125   16:00   79.6    14    3.9   161      8.0   961.5    0.00     399    86.0
 125   16:10   79.9    14    4.0   182      7.3   961.5    0.00     292    86.0
 125   16:20   79.4    14    4.9   185     10.2   961.5    0.00     379    85.9
 125   16:30   79.2    14    5.8   174     10.7   961.4    0.00     345    85.8
 125   16:40   79.4    14    4.0   136      9.9   961.4    0.00     310    84.8
 125   16:50   79.4    14    4.2   142     10.1   961.4    0.00     179    84.5
 125   17:00   80.0    14    3.3   138      9.8   961.4    0.00     229    84.2
 125   17:10   79.2    14    5.8   170     11.0   961.4    0.00     142    84.3
 125   17:20   78.9    14    4.0   145      8.3   961.4    0.00     136    83.6
 125   17:30   78.6    14    3.3    98      6.6   961.3    0.00     107    82.7
 125   17:40   78.2    14    3.3   110      8.5   961.2    0.00     106    82.4
 125   17:50   77.7    14    3.7   113      8.7   961.1    0.00      62    82.0
 125   18:00   77.0    15    3.2   118      8.3   961.0    0.00      44    81.5
 125   18:10   76.9    16    2.9   122      8.6   960.9    0.00      28    81.0
 125   18:20   75.9    18    3.9   104      8.0   960.9    0.00      16    80.2
 125   18:30   74.6    19    4.1   115      7.5   960.9    0.00       7    79.4
 125   18:40   74.1    19    3.3   116      7.0   960.9    0.00       2    78.9
 125   18:50   74.2    19    3.1   126      7.3   960.9    0.00       1    78.8
 125   19:00   74.4    19    2.9   126      6.2   961.0    0.00       0    78.5
 125   19:10   73.8    20    2.5   128      6.3   961.1    0.00       0    78.1
 125   19:20   73.4    20    2.1   130      5.0   961.2    0.00       0    77.7
 125   19:30   73.1    21    3.0   135      6.4   961.3    0.00       0    77.5
 125   19:40   72.7    21    2.3   123      5.4   961.4    0.00       0    76.9
 125   19:50   71.2    24    2.1   105      4.6   961.5    0.00       0    76.2
 125   20:00   69.4    26    1.9    99      3.4   961.6    0.00       0    75.7
 125   20:10   69.4    26    1.8   111      4.1   961.7    0.00       0    75.5
 125   20:20   69.9    25    1.9   122      3.9   961.8    0.00       0    75.6
 125   20:30   70.3    24    1.6   134      4.4   961.8    0.00       0    75.7
 125   20:40   69.6    25    2.7    88      5.3   961.9    0.00       0    75.2
 125   20:50   68.4    26    3.0    96      4.7   962.0    0.00       0    74.8
 125   21:00   69.3    25    2.2    84      5.0   962.1    0.00       0    74.8
 125   21:10   68.7    26    3.4    96      5.7   962.3    0.00       0    74.2
 125   21:20   69.1    27    1.9   115      4.5   962.6    0.00       0    74.2
 125   21:30   69.5    27    2.8   108      4.5   962.6    0.00       0    73.9
 125   21:40   68.9    28    2.5   110      5.3   962.8    0.00       0    73.5
 125   21:50   68.9    29    2.7   107      5.8   962.9    0.00       0    73.3
 125   22:00   69.0    29    1.9   128      5.3   963.1    0.00       0    73.3
 125   22:10   68.8    29    1.6   120      3.9   963.1    0.00       0    72.9
 125   22:20   68.4    29    1.7   124      3.9   963.2    0.00       0    72.6
 125   22:30   68.2    29    2.3   122      4.3   963.2    0.00       0    72.4
 125   22:40   68.1    28    2.7   113      5.2   963.2    0.00       0    72.1
 125   22:50   67.5    29    3.3   114      6.3   963.2    0.00       0    71.7
 125   23:00   67.1    29    3.6   117      6.3   963.3    0.00       0    71.5
 125   23:10   67.0    30    3.7   117      6.7   963.4    0.00       0    71.3
 125   23:20   67.2    30    3.0   120      6.6   963.4    0.00       0    71.2
 125   23:30   67.2    30    2.9   124      8.3   963.4    0.00       0    71.1
 125   23:40   67.3    29    3.0   122      6.8   963.3    0.00       0    71.0
 125   23:50   67.6    28    3.2   122      7.2   963.3    0.00       0    70.9
 126    0:00   67.6    27    2.6   130      7.3   963.2    0.00       0    70.8
 126    0:10   67.2    28    2.4   125      6.0   963.2    0.00       0    70.5
 126    0:20   67.2    27    2.6   118      5.6   963.2    0.00       0    70.4
 126    0:30   67.2    27    2.8   113      6.4   963.2    0.00       0    70.3
 126    0:40   67.2    27    3.0   114      7.3   963.2    0.00       0    70.2
 126    0:50   67.2    26    2.8   122      7.7   963.2    0.00       0    70.1
 126    1:00   67.4    26    2.5   134      5.8   963.2    0.00       0    70.0
 126    1:10   67.5    26    3.2   137      8.6   963.2    0.00       0    69.9
 126    1:20   67.5    25    3.5   142      7.5   963.3    0.00       0    69.9
 126    1:30   67.1    26    2.7   156      6.4   963.4    0.00       0    69.7
 126    1:40   67.2    25    2.5   151      6.2   963.6    0.00       0    69.6
 126    1:50   67.4    25    2.7   143      6.9   963.6    0.00       0    69.5
 126    2:00   67.3    26    1.9   127      7.1   963.7    0.00       0    69.4
 126    2:10   66.4    27    0.8   105      3.1   963.9    0.00       0    68.9
 126    2:20   66.1    28    2.5   126      6.1   964.0    0.00       0    68.8
 126    2:30   65.6    29    2.6   123      5.6   964.1    0.00       0    68.6
 126    2:40   65.5    29    2.8   132      6.4   964.1    0.00       0    68.5
 126    2:50   65.6    29    2.5   139      6.4   964.2    0.00       0    68.5
 126    3:00   65.2    30    2.1   147      5.9   964.3    0.00       0    68.3
 126    3:10   64.7    31    2.7   152      5.3   964.4    0.00       0    68.1
 126    3:20   64.4    32    2.8   155      5.4   964.4    0.00       0    67.9
 126    3:30   63.9    32    2.2   158      4.7   964.5    0.00       0    67.7
 126    3:40   63.5    33    2.3   156      4.5   964.6    0.00       0    67.5
 126    3:50   63.5    33    1.6   132      3.2   964.7    0.00       0    67.2
 126    4:00   63.5    33    1.5   150      4.1   964.7    0.00       0    67.1
 126    4:10   62.1    34    1.2   164      3.8   964.7    0.00       0    66.3
 126    4:20   56.1    42    1.3   310      2.9   964.8    0.00       0    64.2
 126    4:30   55.2    43    1.3   292      3.3   964.8    0.00       1    64.3
 126    4:40   55.5    40    1.5   302      2.7   964.8    0.00       3    63.9
 126    4:50   54.1    45    1.3   314      3.2   964.8    0.00       8    63.4
 126    5:00   54.5    45    0.9   322      2.1   964.9    0.00      18    63.6
 126    5:10   53.6    49    1.7   331      2.3   965.1    0.00      51    64.9
 126    5:20   54.4    48    2.1   338      3.7   965.2    0.00      77    66.6
 126    5:30   55.3    46    2.6   335      3.9   965.5    0.00     105    68.2
 126    5:40   56.7    44    3.3   320      4.5   965.8    0.00     134    69.6
 126    5:50   59.1    39    2.5   286      4.3   966.1    0.00     166    72.9
 126    6:00   60.9    36    1.8   304      3.9   966.5    0.00     198    74.1
 126    6:10   63.1    33    1.5   292      4.2   966.7    0.00     232    76.1
 126    6:20   64.0    32    2.5   318      4.0   967.0    0.00     267    75.7
 126    6:30   65.1    32    1.8   348      2.9   967.2    0.00     302    75.5
 126    6:40   67.0    30    0.9   314      3.0   967.5    0.00     338    78.5
 126    6:50   67.6    28    1.6   275      3.2   967.7    0.00     374    81.4
 126    7:00   68.7    27    0.7   220      2.4   967.9    0.00     409    84.0
 126    7:10   70.4    26    0.9   249      2.8   968.1    0.00     444    84.8
 126    7:20   70.8    25    1.0   174      3.6   968.4    0.00     479    82.7
 126    7:30   71.6    24    1.0   261      2.9   968.5    0.00     511    85.0
 126    7:40   72.0    24    0.9   181      3.1   968.7    0.00     544    87.1
 126    7:50   72.1    24    1.6   134      4.0   968.8    0.00     578    88.9
 126    8:00   72.5    24    1.2   216      4.1   968.9    0.00     608    91.4
 126    8:10   73.0    24    2.3   241      5.0   969.0    0.00     639    93.3
 126    8:20   73.7    23    2.2   191      5.7   969.2    0.00     669    95.4
 126    8:30   73.4    23    3.2   205      6.4   969.3    0.00     699    96.9
 126    8:40   73.6    23    3.0   233      5.5   969.3    0.00     726    97.6
 126    8:50   74.1    22    2.5   178      5.5   969.3    0.00     753    99.0
 126    9:00   75.1    22    2.4   126      5.3   969.3    0.00     779    98.3
 126    9:10   75.7    21    2.0   167      6.1   969.4    0.00     804    101.8
 126    9:20   76.5    20    1.4   103      4.0   969.4    0.00     826    101.8
 126    9:30   77.1    20    2.7   138      7.2   969.5    0.00     848    102.9
 126    9:40   77.4    20    1.3   295      4.4   969.6    0.00     870    103.2
 126    9:50   77.7    20    2.3   181      5.1   969.6    0.00     890    106.1
 126   10:00   78.6    19    2.7    11      5.9   969.6    0.00     905    103.2
 126   10:10   79.5    18    2.0    60      8.1   969.5    0.00     921    103.6
 126   10:20   78.6    19    4.8    52      8.6   969.6    0.00     934    100.7
 126   10:30   79.2    18    3.6    54      8.5   969.5    0.00     944    101.3
 126   10:40   80.1    18    3.7   338      7.7   969.4    0.00     954    100.2
 126   10:50   80.1    18    4.0    86      8.3   969.4    0.00     963    102.3
 126   11:00   80.1    18    2.4    72      6.4   969.3    0.00     946    101.9
 126   11:10   80.8    18    5.1    19      8.9   969.2    0.00     974    100.4
 126   11:20   81.0    18    4.8   336      8.4   969.1    0.00     977    100.4
 126   11:30   81.6    17    2.8   330      6.8   968.9    0.00     980    101.3

Return to Overton, Nevada graphs page.


Western Regional Climate Center,wrcc@dri.edu